sensor_id;sensor_type;location;lat;lon;timestamp;pressure;altitude;pressure_sealevel;temperature;humidity
50430;BME280;36359;41.556;-8.418;2023-05-20T00:00:22;100268.91;;;19.08;47.45
50430;BME280;36359;41.556;-8.418;2023-05-20T00:02:47;100271.16;;;18.91;47.63
50430;BME280;36359;41.556;-8.418;2023-05-20T00:05:13;100269.75;;;19.02;47.24
50430;BME280;36359;41.556;-8.418;2023-05-20T00:07:38;100270.41;;;19.11;47.52
50430;BME280;36359;41.556;-8.418;2023-05-20T00:10:04;100278.88;;;19.16;47.17
50430;BME280;36359;41.556;-8.418;2023-05-20T00:12:30;100277.41;;;19.26;47.69
50430;BME280;36359;41.556;-8.418;2023-05-20T00:14:55;100279.97;;;19.35;47.60
50430;BME280;36359;41.556;-8.418;2023-05-20T00:17:21;100277.22;;;19.35;47.49
50430;BME280;36359;41.556;-8.418;2023-05-20T00:19:46;100272.16;;;19.32;46.83
50430;BME280;36359;41.556;-8.418;2023-05-20T00:22:12;100265.31;;;19.08;47.00
50430;BME280;36359;41.556;-8.418;2023-05-20T00:24:40;100266.41;;;19.13;47.03
50430;BME280;36359;41.556;-8.418;2023-05-20T00:27:05;100263.63;;;19.06;47.40
50430;BME280;36359;41.556;-8.418;2023-05-20T00:29:31;100261.50;;;19.02;47.25
50430;BME280;36359;41.556;-8.418;2023-05-20T00:31:57;100260.06;;;19.19;47.66
50430;BME280;36359;41.556;-8.418;2023-05-20T00:34:23;100254.31;;;19.14;46.97
50430;BME280;36359;41.556;-8.418;2023-05-20T00:36:48;100250.97;;;19.12;48.35
50430;BME280;36359;41.556;-8.418;2023-05-20T00:39:14;100256.41;;;19.05;49.41
50430;BME280;36359;41.556;-8.418;2023-05-20T00:41:40;100251.81;;;19.13;49.04
50430;BME280;36359;41.556;-8.418;2023-05-20T00:44:05;100244.56;;;19.05;49.04
50430;BME280;36359;41.556;-8.418;2023-05-20T00:46:31;100234.16;;;18.87;48.96
50430;BME280;36359;41.556;-8.418;2023-05-20T00:48:57;100226.34;;;18.91;48.85
50430;BME280;36359;41.556;-8.418;2023-05-20T00:51:23;100218.97;;;18.98;48.51
50430;BME280;36359;41.556;-8.418;2023-05-20T00:53:49;100222.75;;;18.90;48.14
50430;BME280;36359;41.556;-8.418;2023-05-20T00:56:15;100218.56;;;19.01;48.25
50430;BME280;36359;41.556;-8.418;2023-05-20T00:58:42;100221.97;;;19.16;47.85
50430;BME280;36359;41.556;-8.418;2023-05-20T01:01:07;100226.63;;;19.09;47.85
50430;BME280;36359;41.556;-8.418;2023-05-20T01:03:33;100219.34;;;18.81;48.38
50430;BME280;36359;41.556;-8.418;2023-05-20T01:05:58;100217.91;;;18.99;48.11
50430;BME280;36359;41.556;-8.418;2023-05-20T01:08:25;100223.38;;;18.86;48.51
50430;BME280;36359;41.556;-8.418;2023-05-20T01:10:54;100229.75;;;18.93;49.17
50430;BME280;36359;41.556;-8.418;2023-05-20T01:13:23;100233.63;;;18.70;50.08
50430;BME280;36359;41.556;-8.418;2023-05-20T01:15:52;100235.25;;;18.93;49.75
50430;BME280;36359;41.556;-8.418;2023-05-20T01:18:20;100246.06;;;19.01;49.26
50430;BME280;36359;41.556;-8.418;2023-05-20T01:20:50;100247.25;;;18.78;48.90
50430;BME280;36359;41.556;-8.418;2023-05-20T01:23:18;100239.28;;;18.55;49.36
50430;BME280;36359;41.556;-8.418;2023-05-20T01:25:44;100244.50;;;18.78;49.06
50430;BME280;36359;41.556;-8.418;2023-05-20T01:28:12;100236.94;;;18.52;49.35
50430;BME280;36359;41.556;-8.418;2023-05-20T01:30:43;100229.13;;;18.49;49.98
50430;BME280;36359;41.556;-8.418;2023-05-20T01:33:12;100231.66;;;18.51;50.24
50430;BME280;36359;41.556;-8.418;2023-05-20T01:35:38;100226.09;;;18.79;49.58
50430;BME280;36359;41.556;-8.418;2023-05-20T01:38:05;100221.28;;;18.46;50.45
50430;BME280;36359;41.556;-8.418;2023-05-20T01:40:33;100218.28;;;18.41;50.75
50430;BME280;36359;41.556;-8.418;2023-05-20T01:42:59;100213.84;;;18.33;51.01
50430;BME280;36359;41.556;-8.418;2023-05-20T01:45:25;100200.69;;;18.29;50.36
50430;BME280;36359;41.556;-8.418;2023-05-20T01:47:51;100201.09;;;18.26;50.51
50430;BME280;36359;41.556;-8.418;2023-05-20T01:50:16;100209.56;;;18.72;49.80
50430;BME280;36359;41.556;-8.418;2023-05-20T01:52:42;100208.44;;;18.53;49.21
50430;BME280;36359;41.556;-8.418;2023-05-20T01:55:08;100203.56;;;18.14;50.22
50430;BME280;36359;41.556;-8.418;2023-05-20T01:57:34;100220.81;;;18.01;50.75
50430;BME280;36359;41.556;-8.418;2023-05-20T02:00:00;100213.09;;;17.83;51.36
50430;BME280;36359;41.556;-8.418;2023-05-20T02:02:26;100206.19;;;17.94;51.16
50430;BME280;36359;41.556;-8.418;2023-05-20T02:04:52;100192.28;;;17.96;51.73
50430;BME280;36359;41.556;-8.418;2023-05-20T02:07:18;100196.56;;;18.05;50.54
50430;BME280;36359;41.556;-8.418;2023-05-20T02:09:44;100198.06;;;18.49;50.55
50430;BME280;36359;41.556;-8.418;2023-05-20T02:12:10;100181.16;;;18.52;51.92
50430;BME280;36359;41.556;-8.418;2023-05-20T02:14:41;100180.63;;;18.28;51.41
50430;BME280;36359;41.556;-8.418;2023-05-20T02:17:06;100178.53;;;17.89;52.77
50430;BME280;36359;41.556;-8.418;2023-05-20T02:19:32;100164.72;;;18.17;52.49
50430;BME280;36359;41.556;-8.418;2023-05-20T02:21:57;100158.13;;;18.05;52.69
50430;BME280;36359;41.556;-8.418;2023-05-20T02:24:23;100160.16;;;17.89;50.89
50430;BME280;36359;41.556;-8.418;2023-05-20T02:26:48;100153.13;;;18.15;47.69
50430;BME280;36359;41.556;-8.418;2023-05-20T02:29:15;100149.34;;;18.23;48.20
50430;BME280;36359;41.556;-8.418;2023-05-20T02:31:41;100154.22;;;18.27;45.35
50430;BME280;36359;41.556;-8.418;2023-05-20T02:34:07;100158.22;;;18.25;43.69
50430;BME280;36359;41.556;-8.418;2023-05-20T02:36:32;100154.25;;;18.34;41.93
50430;BME280;36359;41.556;-8.418;2023-05-20T02:39:00;100146.41;;;18.31;40.70
50430;BME280;36359;41.556;-8.418;2023-05-20T02:41:25;100148.16;;;18.38;42.06
50430;BME280;36359;41.556;-8.418;2023-05-20T02:43:51;100149.97;;;18.18;41.99
50430;BME280;36359;41.556;-8.418;2023-05-20T02:46:16;100149.81;;;18.33;43.07
50430;BME280;36359;41.556;-8.418;2023-05-20T02:48:44;100149.31;;;18.16;41.74
50430;BME280;36359;41.556;-8.418;2023-05-20T02:51:09;100150.31;;;18.08;42.09
50430;BME280;36359;41.556;-8.418;2023-05-20T02:53:35;100145.44;;;18.04;41.58
50430;BME280;36359;41.556;-8.418;2023-05-20T02:56:02;100150.78;;;18.12;41.34
50430;BME280;36359;41.556;-8.418;2023-05-20T02:58:27;100144.41;;;18.05;42.00
50430;BME280;36359;41.556;-8.418;2023-05-20T03:00:53;100151.56;;;18.06;41.44
50430;BME280;36359;41.556;-8.418;2023-05-20T03:03:19;100143.97;;;18.01;41.29
50430;BME280;36359;41.556;-8.418;2023-05-20T03:05:44;100145.44;;;18.04;41.89
50430;BME280;36359;41.556;-8.418;2023-05-20T03:08:10;100139.72;;;17.99;40.90
50430;BME280;36359;41.556;-8.418;2023-05-20T03:10:36;100139.56;;;18.07;42.76
50430;BME280;36359;41.556;-8.418;2023-05-20T03:13:03;100133.78;;;17.95;42.18
50430;BME280;36359;41.556;-8.418;2023-05-20T03:15:29;100134.16;;;17.85;41.95
50430;BME280;36359;41.556;-8.418;2023-05-20T03:17:54;100132.81;;;18.09;40.45
50430;BME280;36359;41.556;-8.418;2023-05-20T03:20:20;100125.34;;;17.97;39.86
50430;BME280;36359;41.556;-8.418;2023-05-20T03:22:46;100110.91;;;17.81;39.86
50430;BME280;36359;41.556;-8.418;2023-05-20T03:25:12;100119.41;;;17.93;38.41
50430;BME280;36359;41.556;-8.418;2023-05-20T03:27:37;100109.81;;;18.17;37.87
50430;BME280;36359;41.556;-8.418;2023-05-20T03:30:04;100111.03;;;18.08;37.77
50430;BME280;36359;41.556;-8.418;2023-05-20T03:32:30;100111.41;;;17.91;37.91
50430;BME280;36359;41.556;-8.418;2023-05-20T03:34:56;100106.13;;;17.97;37.73
50430;BME280;36359;41.556;-8.418;2023-05-20T03:37:22;100113.00;;;17.79;37.40
50430;BME280;36359;41.556;-8.418;2023-05-20T03:39:48;100101.69;;;17.96;38.40
50430;BME280;36359;41.556;-8.418;2023-05-20T03:42:13;100108.72;;;18.05;36.17
50430;BME280;36359;41.556;-8.418;2023-05-20T03:44:39;100105.41;;;17.81;36.85
50430;BME280;36359;41.556;-8.418;2023-05-20T03:47:05;100106.19;;;17.75;37.15
50430;BME280;36359;41.556;-8.418;2023-05-20T03:49:31;100105.41;;;17.81;36.39
50430;BME280;36359;41.556;-8.418;2023-05-20T03:51:56;100119.16;;;17.88;38.10
50430;BME280;36359;41.556;-8.418;2023-05-20T03:54:22;100123.13;;;17.79;37.16
50430;BME280;36359;41.556;-8.418;2023-05-20T03:56:50;100109.00;;;17.82;36.34
50430;BME280;36359;41.556;-8.418;2023-05-20T03:59:17;100112.22;;;17.85;36.79
50430;BME280;36359;41.556;-8.418;2023-05-20T04:01:43;100118.28;;;17.81;36.60
50430;BME280;36359;41.556;-8.418;2023-05-20T04:04:09;100114.97;;;17.85;36.84
50430;BME280;36359;41.556;-8.418;2023-05-20T04:06:35;100116.78;;;17.78;37.12
50430;BME280;36359;41.556;-8.418;2023-05-20T04:09:01;100116.06;;;17.69;38.00
50430;BME280;36359;41.556;-8.418;2023-05-20T04:11:26;100114.84;;;17.72;37.56
50430;BME280;36359;41.556;-8.418;2023-05-20T04:13:52;100122.59;;;17.62;38.34
50430;BME280;36359;41.556;-8.418;2023-05-20T04:16:18;100124.69;;;17.60;38.77
50430;BME280;36359;41.556;-8.418;2023-05-20T04:18:44;100121.78;;;17.68;39.55
50430;BME280;36359;41.556;-8.418;2023-05-20T04:21:11;100116.50;;;17.73;39.40
50430;BME280;36359;41.556;-8.418;2023-05-20T04:23:36;100109.34;;;17.72;39.69
50430;BME280;36359;41.556;-8.418;2023-05-20T04:26:02;100104.75;;;17.79;40.05
50430;BME280;36359;41.556;-8.418;2023-05-20T04:28:29;100106.66;;;17.79;39.83
50430;BME280;36359;41.556;-8.418;2023-05-20T04:31:02;100098.72;;;17.90;40.91
50430;BME280;36359;41.556;-8.418;2023-05-20T04:33:33;100094.94;;;17.98;39.55
50430;BME280;36359;41.556;-8.418;2023-05-20T04:36:02;100096.38;;;17.87;39.59
50430;BME280;36359;41.556;-8.418;2023-05-20T04:38:29;100100.59;;;17.83;39.79
50430;BME280;36359;41.556;-8.418;2023-05-20T04:40:58;100090.88;;;17.87;39.10
50430;BME280;36359;41.556;-8.418;2023-05-20T04:43:24;100086.72;;;17.63;39.34
50430;BME280;36359;41.556;-8.418;2023-05-20T04:45:50;100090.28;;;17.64;38.56
50430;BME280;36359;41.556;-8.418;2023-05-20T04:48:17;100093.94;;;17.71;38.35
50430;BME280;36359;41.556;-8.418;2023-05-20T04:50:43;100095.53;;;17.59;38.10
50430;BME280;36359;41.556;-8.418;2023-05-20T04:53:10;100093.59;;;17.53;38.12
50430;BME280;36359;41.556;-8.418;2023-05-20T04:55:35;100101.00;;;17.59;38.21
50430;BME280;36359;41.556;-8.418;2023-05-20T04:58:01;100101.28;;;17.64;38.68
50430;BME280;36359;41.556;-8.418;2023-05-20T05:00:28;100104.16;;;17.56;38.51
50430;BME280;36359;41.556;-8.418;2023-05-20T05:02:54;100102.97;;;17.65;39.02
50430;BME280;36359;41.556;-8.418;2023-05-20T05:05:20;100100.72;;;17.47;38.84
50430;BME280;36359;41.556;-8.418;2023-05-20T05:07:45;100101.00;;;17.59;38.64
50430;BME280;36359;41.556;-8.418;2023-05-20T05:10:11;100096.19;;;17.61;38.50
50430;BME280;36359;41.556;-8.418;2023-05-20T05:12:37;100101.69;;;17.67;39.62
50430;BME280;36359;41.556;-8.418;2023-05-20T05:15:02;100098.06;;;17.54;38.99
50430;BME280;36359;41.556;-8.418;2023-05-20T05:17:28;100105.63;;;17.52;38.84
50430;BME280;36359;41.556;-8.418;2023-05-20T05:19:55;100103.44;;;17.40;39.04
50430;BME280;36359;41.556;-8.418;2023-05-20T05:22:20;100098.84;;;17.47;40.12
50430;BME280;36359;41.556;-8.418;2023-05-20T05:24:47;100095.25;;;17.47;39.88
50430;BME280;36359;41.556;-8.418;2023-05-20T05:27:14;100110.16;;;17.38;38.75
50430;BME280;36359;41.556;-8.418;2023-05-20T05:29:39;100098.63;;;17.49;39.52
50430;BME280;36359;41.556;-8.418;2023-05-20T05:32:05;100100.94;;;17.45;39.09
50430;BME280;36359;41.556;-8.418;2023-05-20T05:34:30;100107.56;;;17.58;39.76
50430;BME280;36359;41.556;-8.418;2023-05-20T05:36:56;100101.00;;;17.59;38.98
50430;BME280;36359;41.556;-8.418;2023-05-20T05:39:21;100106.03;;;17.48;38.56
50430;BME280;36359;41.556;-8.418;2023-05-20T05:41:47;100102.47;;;17.55;39.33
50430;BME280;36359;41.556;-8.418;2023-05-20T05:44:13;100104.66;;;17.66;40.18
50430;BME280;36359;41.556;-8.418;2023-05-20T05:46:40;100097.31;;;17.73;41.25
50430;BME280;36359;41.556;-8.418;2023-05-20T05:49:05;100100.28;;;17.71;39.18
50430;BME280;36359;41.556;-8.418;2023-05-20T05:51:31;100106.47;;;17.80;38.67
50430;BME280;36359;41.556;-8.418;2023-05-20T05:53:57;100100.66;;;17.62;38.41
50430;BME280;36359;41.556;-8.418;2023-05-20T05:56:22;100110.66;;;17.48;38.03
50430;BME280;36359;41.556;-8.418;2023-05-20T05:58:48;100108.25;;;17.66;39.34
50430;BME280;36359;41.556;-8.418;2023-05-20T06:01:15;100105.63;;;17.52;38.51
50430;BME280;36359;41.556;-8.418;2023-05-20T06:03:40;100104.22;;;17.34;38.92
50430;BME280;36359;41.556;-8.418;2023-05-20T06:06:06;100103.03;;;17.43;38.36
50430;BME280;36359;41.556;-8.418;2023-05-20T06:08:33;100095.97;;;17.28;38.51
50430;BME280;36359;41.556;-8.418;2023-05-20T06:10:59;100103.34;;;17.27;38.23
50430;BME280;36359;41.556;-8.418;2023-05-20T06:13:24;100108.13;;;17.18;37.93
50430;BME280;36359;41.556;-8.418;2023-05-20T06:15:50;100110.66;;;17.20;38.26
50430;BME280;36359;41.556;-8.418;2023-05-20T06:18:16;100118.75;;;17.28;39.01
50430;BME280;36359;41.556;-8.418;2023-05-20T06:20:41;100120.69;;;17.34;37.96
50430;BME280;36359;41.556;-8.418;2023-05-20T06:23:07;100124.97;;;17.43;38.71
50430;BME280;36359;41.556;-8.418;2023-05-20T06:25:41;100124.44;;;17.55;38.61
50430;BME280;36359;41.556;-8.418;2023-05-20T06:28:07;100119.75;;;17.48;38.70
50430;BME280;36359;41.556;-8.418;2023-05-20T06:30:33;100122.28;;;17.22;38.71
50430;BME280;36359;41.556;-8.418;2023-05-20T06:32:59;100118.88;;;17.20;38.87
50430;BME280;36359;41.556;-8.418;2023-05-20T06:35:25;100113.84;;;17.23;39.34
50430;BME280;36359;41.556;-8.418;2023-05-20T06:37:50;100122.94;;;17.24;39.85
50430;BME280;36359;41.556;-8.418;2023-05-20T06:40:16;100118.66;;;17.15;39.57
50430;BME280;36359;41.556;-8.418;2023-05-20T06:42:41;100122.31;;;17.29;39.71
50430;BME280;36359;41.556;-8.418;2023-05-20T06:45:08;100118.88;;;17.20;40.45
50430;BME280;36359;41.556;-8.418;2023-05-20T06:47:47;100115.34;;;17.26;39.86
50430;BME280;36359;41.556;-8.418;2023-05-20T06:50:14;100115.19;;;17.34;40.27
50430;BME280;36359;41.556;-8.418;2023-05-20T06:52:40;100120.84;;;17.54;39.70
50430;BME280;36359;41.556;-8.418;2023-05-20T06:55:06;100116.00;;;17.28;39.84
50430;BME280;36359;41.556;-8.418;2023-05-20T06:57:33;100108.84;;;17.27;41.10
50430;BME280;36359;41.556;-8.418;2023-05-20T06:59:59;100117.75;;;17.36;39.63
50430;BME280;36359;41.556;-8.418;2023-05-20T07:02:25;100122.78;;;17.32;40.32
50430;BME280;36359;41.556;-8.418;2023-05-20T07:04:50;100129.16;;;17.39;40.46
50430;BME280;36359;41.556;-8.418;2023-05-20T07:07:16;100122.47;;;17.48;40.81
50430;BME280;36359;41.556;-8.418;2023-05-20T07:09:45;100119.47;;;17.43;40.44
50430;BME280;36359;41.556;-8.418;2023-05-20T07:12:10;100114.91;;;17.51;40.32
50430;BME280;36359;41.556;-8.418;2023-05-20T07:14:36;100114.72;;;17.59;40.26
50430;BME280;36359;41.556;-8.418;2023-05-20T07:17:01;100120.41;;;17.51;40.42
50430;BME280;36359;41.556;-8.418;2023-05-20T07:19:27;100110.34;;;17.64;40.34
50430;BME280;36359;41.556;-8.418;2023-05-20T07:21:53;100116.28;;;17.68;40.06
50430;BME280;36359;41.556;-8.418;2023-05-20T07:24:48;100114.97;;;17.64;40.25
50430;BME280;36359;41.556;-8.418;2023-05-20T07:27:14;100118.81;;;17.69;39.86
50430;BME280;36359;41.556;-8.418;2023-05-20T07:29:40;100119.34;;;17.80;40.72
50430;BME280;36359;41.556;-8.418;2023-05-20T07:32:07;100122.78;;;17.88;40.55
50430;BME280;36359;41.556;-8.418;2023-05-20T07:34:33;100118.44;;;18.07;40.66
50430;BME280;36359;41.556;-8.418;2023-05-20T07:36:58;100117.34;;;18.02;39.83
50430;BME280;36359;41.556;-8.418;2023-05-20T07:39:24;100124.50;;;17.96;39.66
50430;BME280;36359;41.556;-8.418;2023-05-20T07:41:50;100119.41;;;17.93;40.55
50430;BME280;36359;41.556;-8.418;2023-05-20T07:44:15;100115.09;;;17.77;39.52
50430;BME280;36359;41.556;-8.418;2023-05-20T07:46:46;100119.84;;;17.97;39.19
50430;BME280;36359;41.556;-8.418;2023-05-20T07:49:12;100116.06;;;17.98;38.85
50430;BME280;36359;41.556;-8.418;2023-05-20T07:51:39;100122.03;;;18.08;38.71
50430;BME280;36359;41.556;-8.418;2023-05-20T07:54:04;100113.38;;;18.11;38.57
50430;BME280;36359;41.556;-8.418;2023-05-20T07:56:31;100122.41;;;18.53;39.99
50430;BME280;36359;41.556;-8.418;2023-05-20T07:58:58;100117.94;;;18.38;37.20
50430;BME280;36359;41.556;-8.418;2023-05-20T08:01:26;100117.94;;;18.38;38.61
50430;BME280;36359;41.556;-8.418;2023-05-20T08:03:53;100121.25;;;18.21;38.14
50430;BME280;36359;41.556;-8.418;2023-05-20T08:06:21;100120.84;;;18.24;38.19
50430;BME280;36359;41.556;-8.418;2023-05-20T08:08:48;100121.13;;;18.42;37.92
50430;BME280;36359;41.556;-8.418;2023-05-20T08:11:19;100130.63;;;18.53;38.33
50430;BME280;36359;41.556;-8.418;2023-05-20T08:13:46;100117.44;;;18.22;38.33
50430;BME280;36359;41.556;-8.418;2023-05-20T08:16:12;100112.13;;;18.13;38.10
50430;BME280;36359;41.556;-8.418;2023-05-20T08:18:38;100116.38;;;18.16;39.20
50430;BME280;36359;41.556;-8.418;2023-05-20T08:21:04;100124.25;;;18.32;38.60
50430;BME280;36359;41.556;-8.418;2023-05-20T08:23:32;100117.31;;;18.43;37.60
50430;BME280;36359;41.556;-8.418;2023-05-20T08:25:58;100117.69;;;18.27;37.12
50430;BME280;36359;41.556;-8.418;2023-05-20T08:28:28;100115.81;;;18.41;37.33
50430;BME280;36359;41.556;-8.418;2023-05-20T08:30:54;100121.53;;;18.46;37.47
50430;BME280;36359;41.556;-8.418;2023-05-20T08:33:20;100118.94;;;18.86;37.88
50430;BME280;36359;41.556;-8.418;2023-05-20T08:35:47;100111.41;;;18.46;36.97
50430;BME280;36359;41.556;-8.418;2023-05-20T08:38:12;100112.28;;;18.67;37.58
50430;BME280;36359;41.556;-8.418;2023-05-20T08:40:38;100112.28;;;18.67;36.78
50430;BME280;36359;41.556;-8.418;2023-05-20T08:43:04;100118.28;;;18.97;36.72
50430;BME280;36359;41.556;-8.418;2023-05-20T08:45:30;100121.03;;;18.97;35.76
50430;BME280;36359;41.556;-8.418;2023-05-20T08:48:01;100118.28;;;18.83;35.98
50430;BME280;36359;41.556;-8.418;2023-05-20T08:50:28;100123.59;;;18.92;36.49
50430;BME280;36359;41.556;-8.418;2023-05-20T08:52:54;100120.22;;;19.16;35.86
50430;BME280;36359;41.556;-8.418;2023-05-20T08:57:52;100107.31;;;19.30;35.42
50430;BME280;36359;41.556;-8.418;2023-05-20T09:00:19;100105.00;;;19.27;35.80
50430;BME280;36359;41.556;-8.418;2023-05-20T09:02:46;100094.22;;;19.12;35.80
50430;BME280;36359;41.556;-8.418;2023-05-20T09:05:11;100093.94;;;19.47;35.05
50430;BME280;36359;41.556;-8.418;2023-05-20T09:07:37;100096.72;;;19.67;35.11
50430;BME280;36359;41.556;-8.418;2023-05-20T09:10:04;100089.69;;;19.64;35.06
50430;BME280;36359;41.556;-8.418;2023-05-20T09:12:30;100103.41;;;20.04;33.61
50430;BME280;36359;41.556;-8.418;2023-05-20T09:14:56;100087.09;;;19.96;33.14
50430;BME280;36359;41.556;-8.418;2023-05-20T09:17:22;100083.69;;;20.07;31.65
50430;BME280;36359;41.556;-8.418;2023-05-20T09:19:51;100088.38;;;20.00;30.92
50430;BME280;36359;41.556;-8.418;2023-05-20T09:22:23;100077.38;;;20.00;30.88
50430;BME280;36359;41.556;-8.418;2023-05-20T09:24:50;100080.38;;;19.79;31.32
50430;BME280;36359;41.556;-8.418;2023-05-20T09:27:16;100081.03;;;20.26;32.28
50430;BME280;36359;41.556;-8.418;2023-05-20T09:29:42;100081.44;;;20.36;32.10
50430;BME280;36359;41.556;-8.418;2023-05-20T09:32:10;100072.03;;;20.05;32.42
50430;BME280;36359;41.556;-8.418;2023-05-20T09:34:38;100081.75;;;20.59;32.51
50430;BME280;36359;41.556;-8.418;2023-05-20T09:37:06;100071.78;;;20.58;31.12
50430;BME280;36359;41.556;-8.418;2023-05-20T09:39:32;100073.94;;;20.56;32.86
50430;BME280;36359;41.556;-8.418;2023-05-20T09:42:33;100075.78;;;20.17;32.43
50430;BME280;36359;41.556;-8.418;2023-05-20T09:44:52;100072.66;;;20.07;33.02
50430;BME280;36359;41.556;-8.418;2023-05-20T09:47:18;100079.03;;;20.46;33.90
50430;BME280;36359;41.556;-8.418;2023-05-20T09:49:47;100072.81;;;20.64;32.66
50430;BME280;36359;41.556;-8.418;2023-05-20T09:52:14;100067.16;;;20.52;33.27
50430;BME280;36359;41.556;-8.418;2023-05-20T09:54:39;100076.13;;;20.73;32.26
50430;BME280;36359;41.556;-8.418;2023-05-20T09:57:06;100061.69;;;21.02;35.30
50430;BME280;36359;41.556;-8.418;2023-05-20T09:59:32;100073.59;;;21.28;34.45
50430;BME280;36359;41.556;-8.418;2023-05-20T10:01:57;100070.06;;;21.21;32.99
50430;BME280;36359;41.556;-8.418;2023-05-20T10:04:23;100067.53;;;21.44;30.50
50430;BME280;36359;41.556;-8.418;2023-05-20T10:11:56;100060.94;;;21.64;30.64
50430;BME280;36359;41.556;-8.418;2023-05-20T10:14:31;100060.69;;;21.22;30.66
50430;BME280;36359;41.556;-8.418;2023-05-20T10:17:04;100053.56;;;21.39;29.69
50430;BME280;36359;41.556;-8.418;2023-05-20T10:19:34;100056.78;;;21.29;29.61
50430;BME280;36359;41.556;-8.418;2023-05-20T10:22:00;100053.66;;;21.51;28.63
50430;BME280;36359;41.556;-8.418;2023-05-20T10:24:35;100052.41;;;21.22;28.96
50430;BME280;36359;41.556;-8.418;2023-05-20T10:29:27;100060.56;;;21.60;28.37
50430;BME280;36359;41.556;-8.418;2023-05-20T10:31:53;100045.97;;;21.53;29.27
50430;BME280;36359;41.556;-8.418;2023-05-20T10:34:19;100049.59;;;21.53;28.75
50430;BME280;36359;41.556;-8.418;2023-05-20T10:36:46;100047.59;;;21.61;28.83
50430;BME280;36359;41.556;-8.418;2023-05-20T10:39:14;100041.31;;;21.90;31.17
50430;BME280;36359;41.556;-8.418;2023-05-20T10:41:43;100058.97;;;21.71;28.61
50430;BME280;36359;41.556;-8.418;2023-05-20T10:44:08;100052.66;;;21.82;30.37
50430;BME280;36359;41.556;-8.418;2023-05-20T10:46:34;100053.09;;;21.42;28.94
50430;BME280;36359;41.556;-8.418;2023-05-20T10:49:03;100058.47;;;21.12;29.10
50430;BME280;36359;41.556;-8.418;2023-05-20T10:51:29;100052.03;;;21.18;27.73
50430;BME280;36359;41.556;-8.418;2023-05-20T10:53:56;100050.44;;;21.54;32.77
50430;BME280;36359;41.556;-8.418;2023-05-20T10:56:23;100040.22;;;22.10;31.80
50430;BME280;36359;41.556;-8.418;2023-05-20T10:58:49;100041.03;;;22.59;27.69
50430;BME280;36359;41.556;-8.418;2023-05-20T11:01:15;100036.09;;;22.49;27.66
50430;BME280;36359;41.556;-8.418;2023-05-20T11:03:42;100034.00;;;22.33;27.08
50430;BME280;36359;41.556;-8.418;2023-05-20T11:06:12;100026.47;;;22.52;30.16
50430;BME280;36359;41.556;-8.418;2023-05-20T11:08:38;100029.41;;;22.68;27.52
50430;BME280;36359;41.556;-8.418;2023-05-20T11:11:03;100030.50;;;22.37;27.46
50430;BME280;36359;41.556;-8.418;2023-05-20T11:13:29;100029.81;;;22.42;26.21
50430;BME280;36359;41.556;-8.418;2023-05-20T11:15:55;100028.03;;;22.48;26.47
50430;BME280;36359;41.556;-8.418;2023-05-20T11:18:21;100018.66;;;22.49;27.08
50430;BME280;36359;41.556;-8.418;2023-05-20T11:20:47;100030.97;;;22.34;27.07
50430;BME280;36359;41.556;-8.418;2023-05-20T11:23:13;100011.47;;;21.81;27.72
50430;BME280;36359;41.556;-8.418;2023-05-20T11:25:39;100019.03;;;22.22;28.60
50430;BME280;36359;41.556;-8.418;2023-05-20T11:28:08;100014.34;;;22.22;26.89
50430;BME280;36359;41.556;-8.418;2023-05-20T11:30:34;100011.63;;;22.34;27.41
50430;BME280;36359;41.556;-8.418;2023-05-20T11:33:01;100009.84;;;22.10;27.26
50430;BME280;36359;41.556;-8.418;2023-05-20T11:35:27;100006.84;;;22.30;26.51
50430;BME280;36359;41.556;-8.418;2023-05-20T11:40:22;100005.09;;;23.01;28.58
50430;BME280;36359;41.556;-8.418;2023-05-20T11:42:48;99997.47;;;22.84;27.44
50430;BME280;36359;41.556;-8.418;2023-05-20T11:45:16;99998.38;;;22.66;26.79
50430;BME280;36359;41.556;-8.418;2023-05-20T11:47:42;100000.47;;;22.41;26.86
50430;BME280;36359;41.556;-8.418;2023-05-20T11:50:08;99983.44;;;22.98;31.68
50430;BME280;36359;41.556;-8.418;2023-05-20T11:52:33;99990.31;;;23.07;26.65
50430;BME280;36359;41.556;-8.418;2023-05-20T11:54:59;99984.34;;;22.68;27.06
50430;BME280;36359;41.556;-8.418;2023-05-20T11:57:25;99990.59;;;22.75;27.67
50430;BME280;36359;41.556;-8.418;2023-05-20T11:59:50;99984.69;;;22.72;27.62
50430;BME280;36359;41.556;-8.418;2023-05-20T12:02:16;99982.44;;;22.92;28.01
50430;BME280;36359;41.556;-8.418;2023-05-20T12:04:41;99979.72;;;23.16;26.53
50430;BME280;36359;41.556;-8.418;2023-05-20T12:07:07;99968.75;;;23.44;26.69
50430;BME280;36359;41.556;-8.418;2023-05-20T12:09:34;99982.69;;;23.38;25.99
50430;BME280;36359;41.556;-8.418;2023-05-20T12:11:59;99972.91;;;23.58;24.90
50430;BME280;36359;41.556;-8.418;2023-05-20T12:14:25;99982.44;;;23.51;25.49
50430;BME280;36359;41.556;-8.418;2023-05-20T12:16:50;99972.94;;;23.23;26.76
50430;BME280;36359;41.556;-8.418;2023-05-20T12:19:18;99964.13;;;23.50;26.87
50430;BME280;36359;41.556;-8.418;2023-05-20T12:21:45;99971.16;;;23.17;26.21
50430;BME280;36359;41.556;-8.418;2023-05-20T12:24:11;99968.03;;;23.13;26.62
50430;BME280;36359;41.556;-8.418;2023-05-20T12:26:37;99969.72;;;23.03;25.96
50430;BME280;36359;41.556;-8.418;2023-05-20T12:29:02;99969.44;;;22.93;25.82
50430;BME280;36359;41.556;-8.418;2023-05-20T12:31:28;99973.03;;;22.81;28.01
50430;BME280;36359;41.556;-8.418;2023-05-20T12:33:54;99953.84;;;23.10;28.99
50430;BME280;36359;41.556;-8.418;2023-05-20T12:36:19;99972.44;;;22.79;30.52
50430;BME280;36359;41.556;-8.418;2023-05-20T12:38:45;99972.69;;;22.78;31.68
50430;BME280;36359;41.556;-8.418;2023-05-20T12:41:11;99960.47;;;23.09;30.42
50430;BME280;36359;41.556;-8.418;2023-05-20T12:43:36;99960.06;;;23.41;26.20
50430;BME280;36359;41.556;-8.418;2023-05-20T12:46:02;99954.69;;;23.10;25.94
50430;BME280;36359;41.556;-8.418;2023-05-20T12:48:27;99950.81;;;23.11;26.42